createdAt,value
2019-03-24T00:01:01.581Z,30.10
2019-03-24T00:03:29.657Z,31.93
2019-03-24T00:05:57.759Z,29.65
2019-03-24T00:08:26.120Z,29.75
2019-03-24T00:10:54.070Z,32.33
2019-03-24T00:13:22.130Z,31.00
2019-03-24T00:15:50.459Z,31.30
2019-03-24T00:18:19.315Z,32.53
2019-03-24T00:20:47.351Z,29.60
2019-03-24T00:23:15.846Z,31.82
2019-03-24T00:25:44.092Z,30.70
2019-03-24T00:28:12.237Z,32.20
2019-03-24T00:30:40.188Z,27.77
2019-03-24T00:33:08.439Z,28.45
2019-03-24T00:35:37.056Z,28.12
2019-03-24T00:38:05.529Z,29.10
2019-03-24T00:40:33.915Z,25.43
2019-03-24T00:43:01.927Z,26.80
2019-03-24T00:45:36.775Z,25.40
2019-03-24T00:47:59.890Z,25.80
2019-03-24T00:50:28.056Z,26.02
2019-03-24T00:52:56.128Z,25.92
2019-03-24T00:55:24.474Z,26.68
2019-03-24T00:57:52.581Z,25.85
2019-03-24T01:00:32.437Z,28.85
2019-03-24T01:03:01.430Z,25.72
2019-03-24T01:05:30.064Z,27.73
2019-03-24T01:07:58.395Z,25.35
2019-03-24T01:10:26.970Z,24.40
2019-03-24T01:12:55.383Z,27.62
2019-03-24T01:15:23.802Z,26.30
2019-03-24T01:17:51.806Z,29.00
2019-03-24T01:20:21.164Z,27.02
2019-03-24T01:22:49.953Z,26.23
2019-03-24T01:25:17.974Z,27.37
2019-03-24T01:27:46.444Z,28.85
2019-03-24T01:30:14.720Z,27.27
2019-03-24T01:32:42.718Z,26.68
2019-03-24T01:35:10.725Z,26.80
2019-03-24T01:37:38.982Z,24.67
2019-03-24T01:40:07.483Z,25.77
2019-03-24T01:42:35.709Z,25.65
2019-03-24T01:45:04.062Z,27.40
2019-03-24T01:47:32.505Z,24.65
2019-03-24T01:50:00.862Z,25.80
2019-03-24T01:52:28.879Z,25.05
2019-03-24T01:54:57.288Z,24.47
2019-03-24T01:57:25.875Z,26.70
2019-03-24T01:59:54.217Z,24.37
2019-03-24T02:02:22.219Z,24.63
2019-03-24T02:04:50.499Z,23.20
2019-03-24T02:07:19.609Z,24.27
2019-03-24T02:09:47.557Z,25.12
2019-03-24T02:12:15.658Z,25.80
2019-03-24T02:14:43.774Z,25.17
2019-03-24T02:17:11.841Z,23.30
2019-03-24T02:19:39.962Z,23.40
2019-03-24T02:22:08.550Z,24.35
2019-03-24T02:24:37.293Z,24.12
2019-03-24T02:27:05.568Z,24.37
2019-03-24T02:29:33.648Z,26.35
2019-03-24T02:32:01.757Z,24.65
2019-03-24T02:34:29.792Z,25.60
2019-03-24T02:36:58.072Z,25.92
2019-03-24T02:39:26.146Z,23.07
2019-03-24T02:41:54.603Z,25.50
2019-03-24T02:44:23.105Z,24.07
2019-03-24T02:46:51.886Z,22.35
2019-03-24T02:49:20.816Z,24.10
2019-03-24T02:51:48.956Z,22.05
2019-03-24T02:54:17.097Z,21.17
2019-03-24T02:56:45.158Z,22.87
2019-03-24T02:59:13.240Z,23.00
2019-03-24T03:01:41.319Z,21.57
2019-03-24T03:04:09.679Z,26.27
2019-03-24T03:06:37.682Z,24.40
2019-03-24T03:09:06.035Z,25.35
2019-03-24T03:11:34.378Z,22.67
2019-03-24T03:14:02.418Z,21.95
2019-03-24T03:16:38.379Z,24.57
2019-03-24T03:19:00.625Z,23.22
2019-03-24T03:21:28.730Z,24.65
2019-03-24T03:23:57.052Z,23.50
2019-03-24T03:26:25.035Z,24.47
2019-03-24T03:28:53.468Z,21.73
2019-03-24T03:31:21.891Z,23.27
2019-03-24T03:33:50.000Z,23.77
2019-03-24T03:36:18.051Z,21.35
2019-03-24T03:38:46.560Z,22.90
2019-03-24T03:41:14.620Z,23.10
2019-03-24T03:43:43.701Z,21.90
2019-03-24T03:46:12.444Z,22.20
2019-03-24T03:48:41.576Z,21.25
2019-03-24T03:51:09.652Z,21.07
2019-03-24T03:53:38.514Z,22.52
2019-03-24T03:56:06.714Z,21.57
2019-03-24T03:58:35.186Z,20.15
2019-03-24T04:01:03.244Z,19.25
2019-03-24T04:03:32.292Z,18.92
2019-03-24T04:06:00.741Z,20.10
2019-03-24T04:08:28.755Z,21.20
2019-03-24T04:10:57.924Z,20.88
2019-03-24T04:13:26.647Z,21.15
2019-03-24T04:15:54.635Z,21.45
2019-03-24T04:18:22.714Z,19.87
2019-03-24T04:20:50.746Z,20.55
2019-03-24T04:23:19.125Z,18.05
2019-03-24T04:25:47.223Z,18.77
2019-03-24T04:28:15.313Z,21.02
2019-03-24T04:30:43.386Z,20.75
2019-03-24T04:33:11.455Z,20.12
2019-03-24T04:35:39.937Z,18.80
2019-03-24T04:38:08.082Z,21.40
2019-03-24T04:40:36.071Z,19.80
2019-03-24T04:43:04.025Z,19.73
2019-03-24T04:45:32.034Z,19.73
2019-03-24T04:48:00.178Z,18.90
2019-03-24T04:50:28.553Z,19.75
2019-03-24T04:52:56.618Z,19.90
2019-03-24T04:55:24.590Z,19.85
2019-03-24T04:57:53.097Z,21.33
2019-03-24T05:00:32.585Z,22.05
2019-03-24T05:03:02.114Z,20.52
2019-03-24T05:05:30.898Z,22.40
2019-03-24T05:07:59.665Z,22.30
2019-03-24T05:10:27.950Z,22.87
2019-03-24T05:12:56.399Z,22.35
2019-03-24T05:15:24.742Z,19.62
2019-03-24T05:17:54.115Z,21.37
2019-03-24T05:20:22.333Z,20.32
2019-03-24T05:22:50.404Z,21.90
2019-03-24T05:25:18.940Z,21.42
2019-03-24T05:27:47.317Z,18.55
2019-03-24T05:30:15.298Z,19.32
2019-03-24T05:32:43.269Z,18.62
2019-03-24T05:35:11.707Z,18.87
2019-03-24T05:37:39.764Z,17.80
2019-03-24T05:40:08.439Z,19.65
2019-03-24T05:42:36.504Z,18.32
2019-03-24T05:45:04.777Z,18.95
2019-03-24T05:47:37.166Z,18.23
2019-03-24T05:50:02.930Z,18.52
2019-03-24T05:52:30.988Z,18.27
2019-03-24T05:54:59.555Z,19.62
2019-03-24T05:57:29.762Z,19.15
2019-03-24T05:59:58.496Z,18.87
2019-03-24T06:02:26.807Z,17.52
2019-03-24T06:04:55.682Z,17.73
2019-03-24T06:07:23.807Z,19.05
2019-03-24T06:09:51.865Z,18.98
2019-03-24T06:12:21.688Z,16.27
2019-03-24T06:14:50.015Z,18.90
2019-03-24T06:17:17.996Z,16.77
2019-03-24T06:19:46.622Z,20.20
2019-03-24T06:22:14.644Z,18.67
2019-03-24T06:24:42.702Z,18.98
2019-03-24T06:27:11.079Z,19.75
2019-03-24T06:29:39.154Z,18.70
2019-03-24T06:32:07.313Z,20.27
2019-03-24T06:34:35.314Z,20.05
2019-03-24T06:37:03.581Z,20.92
2019-03-24T06:39:32.308Z,18.12
2019-03-24T06:42:01.793Z,19.37
2019-03-24T06:44:30.074Z,20.02
2019-03-24T06:46:58.226Z,20.35
2019-03-24T06:49:26.713Z,19.12
2019-03-24T06:51:55.484Z,17.48
2019-03-24T06:54:23.857Z,17.55
2019-03-24T06:56:51.885Z,17.23
2019-03-24T06:59:19.983Z,17.27
2019-03-24T07:01:48.415Z,17.67
2019-03-24T07:04:16.840Z,18.30
2019-03-24T07:06:47.084Z,19.35
2019-03-24T07:09:15.225Z,18.55
2019-03-24T07:11:43.330Z,17.85
2019-03-24T07:14:12.280Z,18.07
2019-03-24T07:16:41.480Z,20.62
2019-03-24T07:19:10.938Z,18.87
2019-03-24T07:21:39.779Z,18.02
2019-03-24T07:24:08.525Z,19.02
2019-03-24T07:26:36.992Z,19.45
2019-03-24T07:29:05.725Z,19.82
2019-03-24T07:31:33.809Z,18.00
2019-03-24T07:34:03.539Z,18.75
2019-03-24T07:36:31.668Z,16.90
2019-03-24T07:38:59.763Z,19.37
2019-03-24T07:41:28.414Z,19.10
2019-03-24T07:43:56.903Z,18.15
2019-03-24T07:46:25.273Z,20.00
2019-03-24T07:48:53.964Z,20.32
2019-03-24T07:51:22.314Z,21.82
2019-03-24T07:53:50.514Z,22.52
2019-03-24T07:56:18.530Z,20.92
2019-03-24T07:58:47.115Z,19.60
2019-03-24T08:01:16.046Z,20.10
2019-03-24T08:03:44.662Z,20.75
2019-03-24T08:06:13.282Z,21.55
2019-03-24T08:08:44.352Z,20.40
2019-03-24T08:11:12.314Z,21.33
2019-03-24T08:13:40.688Z,21.50
2019-03-24T08:16:10.042Z,22.02
2019-03-24T08:18:38.425Z,22.40
2019-03-24T08:21:06.507Z,20.60
2019-03-24T08:23:35.116Z,23.67
2019-03-24T08:26:03.119Z,20.10
2019-03-24T08:28:31.114Z,20.80
2019-03-24T08:30:59.670Z,22.70
2019-03-24T08:33:28.461Z,22.00
2019-03-24T08:35:59.019Z,21.07
2019-03-24T08:38:27.765Z,19.82
2019-03-24T08:40:56.152Z,22.15
2019-03-24T08:43:24.797Z,20.08
2019-03-24T08:45:53.134Z,19.40
2019-03-24T08:48:21.581Z,22.62
2019-03-24T08:50:50.416Z,21.87
2019-03-24T08:53:18.520Z,23.87
2019-03-24T08:55:46.598Z,22.52
2019-03-24T08:58:14.627Z,22.90
2019-03-24T09:00:42.937Z,21.90
2019-03-24T09:03:11.416Z,21.45
2019-03-24T09:05:39.923Z,21.95
2019-03-24T09:08:08.326Z,21.90
2019-03-24T09:10:37.070Z,22.60
2019-03-24T09:13:05.658Z,22.25
2019-03-24T09:15:34.980Z,21.52
2019-03-24T09:18:03.101Z,21.45
2019-03-24T09:20:40.998Z,21.85
2019-03-24T09:23:01.242Z,21.65
2019-03-24T09:25:30.319Z,22.62
2019-03-24T09:27:58.995Z,20.52
2019-03-24T09:30:28.981Z,20.37
2019-03-24T09:32:57.297Z,20.68
2019-03-24T09:35:26.323Z,21.70
2019-03-24T09:37:54.766Z,21.27
2019-03-24T09:40:27.310Z,20.82
2019-03-24T09:42:56.089Z,20.85
2019-03-24T09:45:24.823Z,22.48
2019-03-24T09:47:52.847Z,20.88
2019-03-24T09:50:22.765Z,21.57
2019-03-24T09:52:52.340Z,20.65
2019-03-24T09:55:21.055Z,21.77
2019-03-24T09:57:49.198Z,23.35
2019-03-24T10:00:17.736Z,20.65
2019-03-24T10:02:47.043Z,20.37
2019-03-24T10:05:16.358Z,21.12
2019-03-24T10:07:44.746Z,20.75
2019-03-24T10:10:13.317Z,21.00
2019-03-24T10:12:41.455Z,21.33
2019-03-24T10:15:10.099Z,21.15
2019-03-24T10:17:38.834Z,20.75
2019-03-24T10:20:06.932Z,22.62
2019-03-24T10:22:35.514Z,20.62
2019-03-24T10:25:03.510Z,20.08
2019-03-24T10:27:32.427Z,21.80
2019-03-24T10:30:01.019Z,21.77
2019-03-24T10:32:29.431Z,19.92
2019-03-24T10:34:57.887Z,21.37
2019-03-24T10:37:26.929Z,19.52
2019-03-24T10:39:54.982Z,21.02
2019-03-24T10:42:23.894Z,20.52
2019-03-24T10:44:52.047Z,19.42
2019-03-24T10:47:20.168Z,20.02
2019-03-24T10:49:48.193Z,19.20
2019-03-24T10:52:16.280Z,19.60
2019-03-24T10:54:44.382Z,20.90
2019-03-24T10:57:12.748Z,19.82
2019-03-24T10:59:40.841Z,20.12
2019-03-24T11:02:09.682Z,19.80
2019-03-24T11:04:37.868Z,19.80
2019-03-24T11:07:05.926Z,20.08
2019-03-24T11:09:34.023Z,19.57
2019-03-24T11:12:02.242Z,19.70
2019-03-24T11:14:30.753Z,19.05
2019-03-24T11:16:59.259Z,20.20
2019-03-24T11:19:35.255Z,19.92
2019-03-24T11:21:58.058Z,20.20
2019-03-24T11:24:27.969Z,20.70
2019-03-24T11:26:57.746Z,19.25
2019-03-24T11:29:26.247Z,19.23
2019-03-24T11:31:54.930Z,21.80
2019-03-24T11:34:23.301Z,18.62
2019-03-24T11:36:52.368Z,18.15
2019-03-24T11:39:20.788Z,17.98
2019-03-24T11:41:49.172Z,19.40
2019-03-24T11:44:18.023Z,18.92
2019-03-24T11:46:47.144Z,19.82
2019-03-24T11:49:19.400Z,18.67
2019-03-24T11:51:47.684Z,19.45
2019-03-24T11:54:15.798Z,19.17
2019-03-24T11:56:43.966Z,18.05
2019-03-24T11:59:12.458Z,22.10
2019-03-24T12:01:40.514Z,21.35
2019-03-24T12:04:08.790Z,20.60
2019-03-24T12:06:37.307Z,21.25
2019-03-24T12:09:06.143Z,20.68
2019-03-24T12:11:34.571Z,19.65
2019-03-24T12:14:02.807Z,21.48
2019-03-24T12:16:30.865Z,21.02
2019-03-24T12:18:59.271Z,21.05
2019-03-24T12:21:27.621Z,21.77
2019-03-24T12:23:56.527Z,20.88
2019-03-24T12:26:24.994Z,18.87
2019-03-24T12:28:53.516Z,19.17
2019-03-24T12:31:21.890Z,21.25
2019-03-24T12:33:50.994Z,21.77
2019-03-24T12:36:19.929Z,22.58
2019-03-24T12:38:48.039Z,19.95
2019-03-24T12:41:16.500Z,18.85
2019-03-24T12:43:44.633Z,19.90
2019-03-24T12:46:12.906Z,19.90
2019-03-24T12:48:41.106Z,18.48
2019-03-24T12:51:09.511Z,17.92
2019-03-24T12:53:37.577Z,17.30
2019-03-24T12:56:05.830Z,18.10
2019-03-24T12:58:33.830Z,18.23
2019-03-24T13:01:02.004Z,15.88
2019-03-24T13:03:30.216Z,17.92
2019-03-24T13:05:58.540Z,18.80
2019-03-24T13:08:26.884Z,17.48
2019-03-24T13:10:55.056Z,17.30
2019-03-24T13:13:23.382Z,18.07
2019-03-24T13:15:51.795Z,17.23
2019-03-24T13:18:19.883Z,15.72
2019-03-24T13:20:48.267Z,15.30
2019-03-24T13:23:16.392Z,15.85
2019-03-24T13:25:44.563Z,16.95
2019-03-24T13:28:12.809Z,15.75
2019-03-24T13:30:40.907Z,16.07
2019-03-24T13:33:09.331Z,14.68
2019-03-24T13:35:37.531Z,16.70
2019-03-24T13:38:05.895Z,15.75
2019-03-24T13:40:34.265Z,15.60
2019-03-24T13:43:02.414Z,16.48
2019-03-24T13:45:30.432Z,15.80
2019-03-24T13:47:58.901Z,14.23
2019-03-24T13:50:31.550Z,17.62
2019-03-24T13:52:58.261Z,17.52
2019-03-24T13:55:26.622Z,17.05
2019-03-24T13:57:55.306Z,15.48
2019-03-24T14:00:23.411Z,16.40
2019-03-24T14:02:51.947Z,15.10
2019-03-24T14:05:19.999Z,14.07
2019-03-24T14:07:48.294Z,15.30
2019-03-24T14:10:16.711Z,15.53
2019-03-24T14:12:44.994Z,15.20
2019-03-24T14:15:13.751Z,14.87
2019-03-24T14:17:42.448Z,14.43
2019-03-24T14:20:10.702Z,14.18
2019-03-24T14:22:38.660Z,13.60
2019-03-24T14:25:07.094Z,12.78
2019-03-24T14:27:36.184Z,12.45
2019-03-24T14:30:04.949Z,14.05
2019-03-24T14:32:33.287Z,14.18
2019-03-24T14:35:02.644Z,14.87
2019-03-24T14:37:31.107Z,14.38
2019-03-24T14:39:59.291Z,15.80
2019-03-24T14:42:27.386Z,15.58
2019-03-24T14:44:55.347Z,15.50
2019-03-24T14:47:23.910Z,16.35
2019-03-24T14:49:52.449Z,14.95
2019-03-24T14:52:20.455Z,15.20
2019-03-24T14:54:48.532Z,14.53
2019-03-24T14:57:17.034Z,15.55
2019-03-24T14:59:45.958Z,16.52
2019-03-24T15:02:15.100Z,14.33
2019-03-24T15:04:43.843Z,14.75
2019-03-24T15:07:12.655Z,14.70
2019-03-24T15:09:41.062Z,13.28
2019-03-24T15:12:09.437Z,14.00
2019-03-24T15:14:37.933Z,13.80
2019-03-24T15:17:06.515Z,13.60
2019-03-24T15:19:35.382Z,13.13
2019-03-24T15:22:03.412Z,13.10
2019-03-24T15:24:31.567Z,13.75
2019-03-24T15:27:00.190Z,13.18
2019-03-24T15:29:28.836Z,13.98
2019-03-24T15:31:57.243Z,13.72
2019-03-24T15:34:26.049Z,12.55
2019-03-24T15:36:58.726Z,11.93
2019-03-24T15:39:27.131Z,12.73
2019-03-24T15:41:55.351Z,11.65
2019-03-24T15:44:24.407Z,11.55
2019-03-24T15:46:53.137Z,11.57
2019-03-24T15:49:21.825Z,10.40
2019-03-24T15:51:50.226Z,10.53
2019-03-24T15:54:18.728Z,9.78
2019-03-24T15:56:47.168Z,8.65
2019-03-24T15:59:16.053Z,8.08
2019-03-24T16:01:44.320Z,8.75
2019-03-24T16:04:12.553Z,6.92
2019-03-24T16:06:40.723Z,7.47
2019-03-24T16:09:08.822Z,7.20
2019-03-24T16:11:36.965Z,7.45
2019-03-24T16:14:05.130Z,7.00
2019-03-24T16:16:33.140Z,7.47
2019-03-24T16:19:01.517Z,6.47
2019-03-24T16:21:31.281Z,6.62
2019-03-24T16:24:00.535Z,6.72
2019-03-24T16:26:29.022Z,7.42
2019-03-24T16:28:57.454Z,7.03
2019-03-24T16:31:25.484Z,8.25
2019-03-24T16:33:55.240Z,8.70
2019-03-24T16:36:24.474Z,8.65
2019-03-24T16:39:02.956Z,10.63
2019-03-24T16:41:23.426Z,9.98
2019-03-24T16:43:51.865Z,9.40
2019-03-24T16:46:21.470Z,10.82
2019-03-24T16:48:51.207Z,9.65
2019-03-24T16:51:19.705Z,10.23
2019-03-24T16:53:47.930Z,11.12
2019-03-24T16:56:16.015Z,11.05
2019-03-24T16:58:44.686Z,10.55
2019-03-24T17:01:13.493Z,10.80
2019-03-24T17:03:42.067Z,12.20
2019-03-24T17:06:10.333Z,11.60
2019-03-24T17:08:38.456Z,12.50
2019-03-24T17:11:07.503Z,12.18
2019-03-24T17:13:36.028Z,13.78
2019-03-24T17:16:04.380Z,13.60
2019-03-24T17:18:32.557Z,15.38
2019-03-24T17:21:00.578Z,13.28
2019-03-24T17:23:28.904Z,13.10
2019-03-24T17:25:56.929Z,13.40
2019-03-24T17:28:25.662Z,12.82
2019-03-24T17:30:53.857Z,13.75
2019-03-24T17:33:21.922Z,13.15
2019-03-24T17:35:50.267Z,13.25
2019-03-24T17:38:18.758Z,14.23
2019-03-24T17:40:47.327Z,13.10
2019-03-24T17:43:15.654Z,14.00
2019-03-24T17:45:44.065Z,11.65
2019-03-24T17:48:12.497Z,12.45
2019-03-24T17:50:40.582Z,11.85
2019-03-24T17:53:08.793Z,12.00
2019-03-24T17:55:37.433Z,11.60
2019-03-24T17:58:05.659Z,9.83
2019-03-24T18:00:39.162Z,10.88
2019-03-24T18:03:07.674Z,10.48
2019-03-24T18:05:35.735Z,10.25
2019-03-24T18:08:04.063Z,10.18
2019-03-24T18:10:32.193Z,11.38
2019-03-24T18:13:00.632Z,10.32
2019-03-24T18:15:28.678Z,11.53
2019-03-24T18:17:56.921Z,11.43
2019-03-24T18:20:31.495Z,10.13
2019-03-24T18:22:59.997Z,10.30
2019-03-24T18:25:28.355Z,9.18
2019-03-24T18:27:56.638Z,9.33
2019-03-24T18:30:25.662Z,10.00
2019-03-24T18:32:53.731Z,41.42
2019-03-24T18:35:22.178Z,15.25
2019-03-24T18:37:50.185Z,13.20
2019-03-24T18:40:18.655Z,11.90
2019-03-24T18:42:47.055Z,9.20
2019-03-24T18:45:15.926Z,8.45
2019-03-24T18:47:43.911Z,9.05
2019-03-24T18:50:12.572Z,8.75
2019-03-24T18:52:40.711Z,9.23
2019-03-24T18:55:09.870Z,9.30
2019-03-24T18:57:38.246Z,10.10
2019-03-24T19:00:06.910Z,9.23
2019-03-24T19:02:35.768Z,12.15
2019-03-24T19:05:04.265Z,11.97
2019-03-24T19:07:32.631Z,25.68
2019-03-24T19:10:00.781Z,13.43
2019-03-24T19:12:28.902Z,9.83
2019-03-24T19:14:57.217Z,8.78
2019-03-24T19:17:25.245Z,7.60
2019-03-24T19:19:53.610Z,7.95
2019-03-24T19:22:21.942Z,9.78
2019-03-24T19:24:49.954Z,11.08
2019-03-24T19:27:18.327Z,11.35
2019-03-24T19:29:46.467Z,15.55
2019-03-24T19:32:14.503Z,11.83
2019-03-24T19:34:42.602Z,12.93
2019-03-24T19:37:11.038Z,12.28
2019-03-24T19:39:39.459Z,10.98
2019-03-24T19:42:07.740Z,13.03
2019-03-24T19:44:36.132Z,11.57
2019-03-24T19:47:05.158Z,9.05
2019-03-24T19:49:34.314Z,10.08
2019-03-24T19:52:02.876Z,9.18
2019-03-24T19:54:31.985Z,8.03
2019-03-24T19:57:00.258Z,8.53
2019-03-24T19:59:28.646Z,9.08
2019-03-24T20:01:56.684Z,7.87
2019-03-24T20:04:25.450Z,9.10
2019-03-24T20:06:53.508Z,8.78
2019-03-24T20:09:23.313Z,8.68
2019-03-24T20:11:51.501Z,8.35
2019-03-24T20:14:19.959Z,9.30
2019-03-24T20:16:49.419Z,9.00
2019-03-24T20:19:17.445Z,8.80
2019-03-24T20:21:47.311Z,8.58
2019-03-24T20:24:15.715Z,8.73
2019-03-24T20:26:43.927Z,7.58
2019-03-24T20:29:11.913Z,8.43
2019-03-24T20:31:40.506Z,8.73
2019-03-24T20:34:08.802Z,7.78
2019-03-24T20:36:36.945Z,7.22
2019-03-24T20:39:08.205Z,8.15
2019-03-24T20:41:37.111Z,7.75
2019-03-24T20:44:05.563Z,7.40
2019-03-24T20:46:33.673Z,7.58
2019-03-24T20:49:01.884Z,6.45
2019-03-24T20:51:30.951Z,6.85
2019-03-24T20:53:59.246Z,6.37
2019-03-24T20:56:27.810Z,6.60
2019-03-24T20:58:56.230Z,5.25
2019-03-24T21:01:24.424Z,6.33
2019-03-24T21:03:52.829Z,5.87
2019-03-24T21:06:20.842Z,5.67
2019-03-24T21:08:49.202Z,5.50
2019-03-24T21:11:18.531Z,7.05
2019-03-24T21:13:47.569Z,5.90
2019-03-24T21:16:16.677Z,6.47
2019-03-24T21:18:44.788Z,6.55
2019-03-24T21:21:12.854Z,6.40
2019-03-24T21:23:40.855Z,6.25
2019-03-24T21:26:11.073Z,6.25
2019-03-24T21:28:38.872Z,5.95
2019-03-24T21:31:06.959Z,5.60
2019-03-24T21:33:35.918Z,6.30
2019-03-24T21:36:04.002Z,4.47
2019-03-24T21:38:33.046Z,4.87
2019-03-24T21:41:01.201Z,4.33
2019-03-24T21:43:29.312Z,4.45
2019-03-24T21:45:57.579Z,4.00
2019-03-24T21:48:25.673Z,3.95
2019-03-24T21:50:53.779Z,3.92
2019-03-24T21:53:22.491Z,4.25
2019-03-24T21:55:50.494Z,4.53
2019-03-24T21:58:19.797Z,4.37
2019-03-24T22:00:48.273Z,4.30
2019-03-24T22:03:16.697Z,4.15
2019-03-24T22:05:45.365Z,5.20
2019-03-24T22:08:13.330Z,4.17
2019-03-24T22:10:41.474Z,4.25
2019-03-24T22:13:09.651Z,3.80
2019-03-24T22:15:37.872Z,3.70
2019-03-24T22:18:07.298Z,4.40
2019-03-24T22:20:35.788Z,4.15
2019-03-24T22:23:04.673Z,3.70
2019-03-24T22:25:32.789Z,3.10
2019-03-24T22:28:01.092Z,3.52
2019-03-24T22:30:29.481Z,3.62
2019-03-24T22:32:59.284Z,3.47
2019-03-24T22:35:27.591Z,3.55
2019-03-24T22:37:55.703Z,3.35
2019-03-24T22:40:23.685Z,5.00
2019-03-24T22:42:52.582Z,3.83
2019-03-24T22:45:20.815Z,3.85
2019-03-24T22:47:49.163Z,4.70
2019-03-24T22:50:17.227Z,3.92
2019-03-24T22:52:45.384Z,3.98
2019-03-24T22:55:14.467Z,3.62
2019-03-24T22:57:42.476Z,3.22
2019-03-24T23:00:17.842Z,3.42
2019-03-24T23:02:45.998Z,3.02
2019-03-24T23:05:14.487Z,3.22
2019-03-24T23:07:43.823Z,2.60
2019-03-24T23:10:12.208Z,3.15
2019-03-24T23:12:40.224Z,3.22
2019-03-24T23:15:08.856Z,3.20
2019-03-24T23:17:37.380Z,3.22
2019-03-24T23:20:05.739Z,3.08
2019-03-24T23:22:34.114Z,3.15
2019-03-24T23:25:02.455Z,3.10
2019-03-24T23:27:30.815Z,2.52
2019-03-24T23:29:59.161Z,2.67
2019-03-24T23:32:27.258Z,3.35
2019-03-24T23:34:56.000Z,3.00
2019-03-24T23:37:24.312Z,3.08
2019-03-24T23:39:52.711Z,3.42
2019-03-24T23:42:20.795Z,3.80
2019-03-24T23:44:49.592Z,2.70
2019-03-24T23:47:18.318Z,2.75
2019-03-24T23:49:46.683Z,2.85
2019-03-24T23:52:14.767Z,2.90
2019-03-24T23:54:42.763Z,3.50
2019-03-24T23:57:11.856Z,3.30
2019-03-24T23:59:40.841Z,2.83
